Time;durP1;ratioP1;P1;durP2;ratioP2;P2;SDS_P1;SDS_P2;PMS_P1;PMS_P2;Temp;Humidity;BMP_temperature;BMP_pressure;BME280_temperature;BME280_humidity;BME280_pressure;Samples;Min_cycle;Max_cycle;Signal;HPM_P1;HPM_P2
2020/12/30 00:00:27;;;;;;;19.92;10.60;;;;;;;9.67;59.71;98521.22;4369742;32;20110;-94
2020/12/30 00:02:53;;;;;;;19.40;9.57;;;;;;;9.65;59.72;98521.31;4381528;32;20094;-94
2020/12/30 00:05:18;;;;;;;20.00;10.32;;;;;;;9.53;59.71;98514.09;4381253;32;20214;-94
2020/12/30 00:07:43;;;;;;;19.37;9.88;;;;;;;9.51;59.71;98524.56;4369108;32;20091;-93
2020/12/30 00:10:10;;;;;;;17.30;8.95;;;;;;;9.49;59.71;98513.41;4368490;32;27945;-92
2020/12/30 00:12:36;;;;;;;19.08;9.88;;;;;;;9.36;59.70;98522.69;4369127;32;20089;-93
2020/12/30 00:15:02;;;;;;;18.67;9.70;;;;;;;9.43;59.70;98526.66;4368348;32;20110;-93
2020/12/30 00:17:28;;;;;;;21.15;9.75;;;;;;;9.34;59.70;98519.31;4368654;32;20137;-94
2020/12/30 00:19:53;;;;;;;17.67;9.73;;;;;;;9.56;59.70;98523.50;4368399;32;20491;-93
2020/12/30 00:22:19;;;;;;;18.17;8.70;;;;;;;9.37;59.70;98521.78;4368692;32;20208;-93
2020/12/30 00:24:44;;;;;;;16.15;8.13;;;;;;;9.42;59.71;98512.00;4367823;32;22536;-93
2020/12/30 00:27:10;;;;;;;15.80;8.13;;;;;;;9.39;59.70;98508.72;4367167;32;20102;-93
2020/12/30 00:29:35;;;;;;;14.52;8.63;;;;;;;9.40;59.70;98528.56;4379941;32;21994;-91
2020/12/30 00:32:01;;;;;;;18.27;8.65;;;;;;;9.50;59.71;98520.28;4380821;32;27063;-95
2020/12/30 00:34:26;;;;;;;19.67;8.65;;;;;;;9.50;59.71;98533.28;4369456;32;20130;-95
2020/12/30 00:36:52;;;;;;;15.43;7.35;;;;;;;9.57;59.70;98522.59;4382048;32;20401;-95
2020/12/30 00:39:17;;;;;;;15.13;8.00;;;;;;;9.59;59.71;98520.75;4369628;32;20086;-94
2020/12/30 00:41:43;;;;;;;14.95;7.93;;;;;;;9.46;59.70;98512.69;4369658;32;20114;-94
2020/12/30 00:44:08;;;;;;;16.25;7.97;;;;;;;9.55;59.71;98514.87;4369625;32;20156;-95
2020/12/30 00:46:34;;;;;;;19.25;8.48;;;;;;;9.69;59.71;98530.63;4369504;32;20160;-95
2020/12/30 00:48:59;;;;;;;14.77;7.72;;;;;;;9.58;59.71;98535.50;4382172;32;20151;-94
2020/12/30 00:51:24;;;;;;;13.27;7.93;;;;;;;9.54;59.71;98540.00;4369206;32;20129;-93
2020/12/30 00:53:50;;;;;;;13.60;8.18;;;;;;;9.79;59.73;98538.84;4394101;32;20142;-94
2020/12/30 00:56:15;;;;;;;12.32;7.40;;;;;;;9.80;59.73;98540.53;4368336;32;20381;-92
2020/12/30 00:58:41;;;;;;;21.15;8.55;;;;;;;9.75;59.72;98535.56;4368412;32;20118;-95
2020/12/30 01:01:07;;;;;;;14.13;7.70;;;;;;;9.75;59.72;98534.72;4368516;32;20124;-94
2020/12/30 01:03:33;;;;;;;16.55;8.18;;;;;;;9.75;59.72;98525.16;4368927;32;20106;-94
2020/12/30 01:06:06;;;;;;;14.87;8.70;;;;;;;9.72;59.71;98524.47;4389744;32;20110;-96
2020/12/30 01:08:32;;;;;;;15.30;8.25;;;;;;;9.65;59.72;98523.06;4388012;32;20115;-93
2020/12/30 01:10:57;;;;;;;15.48;8.70;;;;;;;9.64;59.71;98518.78;4381619;32;20091;-94
2020/12/30 01:13:23;;;;;;;11.98;7.62;;;;;;;9.62;59.71;98512.81;4369168;32;20118;-93
2020/12/30 01:15:48;;;;;;;17.37;8.13;;;;;;;9.65;59.72;98523.06;4368880;32;20114;-95
2020/12/30 01:18:14;;;;;;;15.73;7.97;;;;;;;9.63;59.71;98525.75;4369389;32;21214;-96
2020/12/30 01:20:39;;;;;;;15.20;7.82;;;;;;;9.71;59.71;98525.38;4382842;32;20125;-95
2020/12/30 01:23:05;;;;;;;15.63;8.00;;;;;;;9.75;59.72;98508.72;4370399;32;20106;-95
2020/12/30 01:25:30;;;;;;;16.15;8.18;;;;;;;9.70;59.71;98523.69;4370252;32;20114;-95
2020/12/30 01:27:56;;;;;;;13.52;7.32;;;;;;;9.90;59.73;98520.97;4369790;32;20133;-95
2020/12/30 01:30:21;;;;;;;15.30;8.82;;;;;;;9.83;59.72;98517.00;4370829;32;20136;-96
2020/12/30 01:32:47;;;;;;;14.32;8.35;;;;;;;9.98;59.73;98512.81;4369836;32;20399;-94
2020/12/30 01:35:12;;;;;;;13.57;8.00;;;;;;;9.95;59.73;98503.41;4370821;32;20418;-96
2020/12/30 01:37:38;;;;;;;15.93;7.68;;;;;;;9.79;59.71;98507.66;4372188;32;20101;-96
2020/12/30 01:40:07;;;;;;;15.25;8.70;;;;;;;9.73;59.72;98527.00;4372388;32;20095;-96
2020/12/30 01:42:54;;;;;;;16.10;8.20;;;;;;;9.82;59.72;98512.72;4397324;32;20133;-96
2020/12/30 01:45:19;;;;;;;13.48;7.37;;;;;;;9.79;59.73;98516.28;4383486;32;20110;-96
2020/12/30 01:47:47;;;;;;;14.75;8.15;;;;;;;9.81;59.73;98518.81;4381271;32;20133;-96
2020/12/30 01:50:14;;;;;;;18.55;8.40;;;;;;;9.79;59.73;98518.91;4369975;32;20113;-95
2020/12/30 01:52:40;;;;;;;17.17;8.30;;;;;;;9.86;59.72;98511.62;4369899;32;20265;-96
2020/12/30 01:55:06;;;;;;;14.18;7.75;;;;;;;9.86;59.72;98516.84;4370086;32;20083;-95
2020/12/30 01:57:31;;;;;;;15.40;7.90;;;;;;;9.83;59.72;98515.22;4369875;32;20169;-96
2020/12/30 01:59:56;;;;;;;18.35;8.65;;;;;;;9.87;59.72;98520.28;4369837;32;20436;-96
2020/12/30 02:02:22;;;;;;;16.17;8.65;;;;;;;9.76;59.72;98529.44;4382417;32;20405;-95
2020/12/30 02:04:50;;;;;;;15.98;8.27;;;;;;;9.75;59.72;98526.91;4370420;32;20128;-96
2020/12/30 02:07:16;;;;;;;19.65;8.55;;;;;;;9.99;59.73;98525.72;4377439;32;20058;-96
2020/12/30 02:09:41;;;;;;;18.80;8.00;;;;;;;9.93;59.73;98528.59;4381389;32;20142;-96
2020/12/30 02:12:07;;;;;;;14.07;7.75;;;;;;;10.03;59.73;98536.81;4376128;32;20435;-95
2020/12/30 02:14:59;;;;;;;15.35;7.78;;;;;;;9.96;59.73;98531.09;4381550;32;20166;-96
2020/12/30 02:43:18;;;;;;;11.15;6.28;;;;;;;10.40;59.75;98556.66;4733508;27;20142;-96
2020/12/30 02:46:21;;;;;;;12.98;6.40;;;;;;;10.37;59.75;98557.66;4362981;32;20170;-95
2020/12/30 02:48:58;;;;;;;16.05;6.12;;;;;;;10.31;59.75;98541.50;4444197;27;20086;-96
2020/12/30 02:51:24;;;;;;;18.20;6.47;;;;;;;10.37;59.75;98546.41;4396115;32;20105;-96
2020/12/30 02:53:52;;;;;;;13.60;6.80;;;;;;;10.35;59.75;98533.47;4390704;32;20054;-96
2020/12/30 02:56:18;;;;;;;16.23;7.70;;;;;;;10.29;59.75;98527.75;4387412;32;127155;-96
2020/12/30 02:58:47;;;;;;;17.45;7.07;;;;;;;10.20;59.75;98528.19;4394279;32;20102;-96
2020/12/30 03:01:18;;;;;;;14.07;7.62;;;;;;;10.05;59.73;98524.56;4406202;32;20901;-96
2020/12/30 03:03:45;;;;;;;12.80;7.22;;;;;;;10.47;59.76;98526.81;4419050;32;20063;-96
2020/12/30 03:06:12;;;;;;;15.65;8.30;;;;;;;10.53;59.76;98523.06;4416264;32;20160;-96
2020/12/30 03:08:40;;;;;;;13.75;8.27;;;;;;;10.37;59.75;98521.22;4390989;32;20093;-96
2020/12/30 03:11:07;;;;;;;22.92;8.50;;;;;;;10.38;59.75;98527.28;4401876;32;20203;-96
2020/12/30 03:13:34;;;;;;;19.00;9.45;;;;;;;10.45;59.76;98518.25;4402332;32;20082;-96
2020/12/30 03:16:00;;;;;;;14.38;8.07;;;;;;;10.22;59.74;98516.81;4401666;32;20086;-96
2020/12/30 03:18:26;;;;;;;16.70;8.88;;;;;;;10.19;59.74;98516.09;4389071;32;20094;-96
2020/12/30 03:20:55;;;;;;;17.23;8.35;;;;;;;10.14;59.74;98516.31;4390492;32;20090;-96
2020/12/30 03:40:51;;;;;;;19.90;8.57;;;;;;;10.13;59.74;98497.28;4425078;32;20118;-95
2020/12/30 03:43:17;;;;;;;15.63;8.80;;;;;;;10.29;59.75;98493.94;4406105;32;20105;-96
2020/12/30 03:45:58;;;;;;;17.35;8.05;;;;;;;10.29;59.75;98491.34;4388729;32;20101;-95
2020/12/30 04:03:26;;;;;;;16.73;8.98;;;;;;;10.27;59.74;98473.22;4530671;27;20083;-91
2020/12/30 04:05:51;;;;;;;23.08;10.10;;;;;;;10.34;59.75;98471.97;4397311;32;20115;-90
2020/12/30 04:15:07;;;;;;;21.37;9.52;;;;;;;10.18;59.75;98472.81;4405963;32;20124;-96
2020/12/30 04:17:33;;;;;;;17.77;10.07;;;;;;;10.22;59.74;98462.22;4379699;32;22707;-95
2020/12/30 04:19:58;;;;;;;17.77;8.95;;;;;;;10.28;59.75;98464.50;4359368;32;25351;-94
2020/12/30 04:22:24;;;;;;;17.17;9.55;;;;;;;10.27;59.75;98459.38;4357368;32;24854;-95
2020/12/30 04:24:49;;;;;;;27.52;13.62;;;;;;;10.07;59.73;98455.97;4371538;32;20102;-95
2020/12/30 04:27:14;;;;;;;30.60;17.62;;;;;;;10.22;59.74;98453.56;4356987;32;20404;-95
2020/12/30 04:29:40;;;;;;;55.28;28.58;;;;;;;10.28;59.75;98448.88;4357347;32;20109;-96
2020/12/30 04:32:05;;;;;;;51.00;27.50;;;;;;;10.20;59.75;98450.19;4357468;32;20170;-94
2020/12/30 04:34:39;;;;;;;57.15;30.08;;;;;;;10.30;59.75;98452.25;4360482;32;20156;-96
2020/12/30 04:37:08;;;;;;;61.72;32.20;;;;;;;10.21;59.74;98455.34;4390649;32;20097;-96
2020/12/30 04:39:48;;;;;;;64.57;34.88;;;;;;;10.29;59.74;98453.16;4380207;32;20129;-96
2020/12/30 04:42:21;;;;;;;60.33;32.20;;;;;;;10.32;59.76;98449.56;4405324;32;20055;-96
2020/12/30 04:45:21;;;;;;;56.63;30.50;;;;;;;10.27;59.75;98443.75;4389472;32;20074;-96
2020/12/30 04:58:13;;;;;;;34.05;19.10;;;;;;;10.31;59.74;98459.13;4344742;32;20153;-96
2020/12/30 05:01:22;;;;;;;32.08;18.12;;;;;;;10.33;59.75;98457.28;4370310;32;20115;-96
2020/12/30 05:04:47;;;;;;;31.33;16.27;;;;;;;10.43;59.76;98457.66;4362031;32;20075;-96
2020/12/30 05:10:45;;;;;;;25.98;14.38;;;;;;;10.40;59.75;98450.00;4381047;32;20202;-96
2020/12/30 05:13:10;;;;;;;28.92;13.40;;;;;;;10.31;59.75;98455.69;4366496;32;20107;-96
2020/12/30 05:15:36;;;;;;;27.02;12.77;;;;;;;10.24;59.74;98451.72;4354733;32;20090;-96
2020/12/30 05:18:05;;;;;;;24.30;11.48;;;;;;;10.15;59.74;98450.38;4355894;32;20129;-96
2020/12/30 05:31:18;;;;;;;24.00;12.37;;;;;;;10.19;59.75;98457.12;4593554;27;20108;-96
2020/12/30 05:34:03;;;;;;;20.50;10.90;;;;;;;10.19;59.74;98448.50;4410892;32;20067;-96
2020/12/30 05:36:51;;;;;;;27.92;10.90;;;;;;;10.18;59.75;98452.03;4472487;27;20165;-96
2020/12/30 05:39:45;;;;;;;21.83;10.52;;;;;;;10.12;59.74;98455.75;4413018;32;20082;-96
2020/12/30 05:42:17;;;;;;;22.17;10.77;;;;;;;10.09;59.73;98445.50;4421612;32;20093;-87
2020/12/30 05:47:19;;;;;;;26.95;13.15;;;;;;;10.42;59.75;98451.63;4572070;27;20174;-96
2020/12/30 05:49:45;;;;;;;24.27;12.30;;;;;;;10.20;59.74;98451.03;4369777;32;20082;-96
2020/12/30 05:57:44;;;;;;;18.45;10.88;;;;;;;10.36;59.75;98462.31;4541098;27;20110;-96
2020/12/30 06:17:44;;;;;;;44.53;17.77;;;;;;;10.38;59.75;98475.25;4438007;32;20085;-94
2020/12/30 06:20:38;;;;;;;44.38;17.85;;;;;;;10.32;59.76;98475.56;4413390;32;20105;-96
2020/12/30 06:30:05;;;;;;;29.02;14.25;;;;;;;10.32;59.76;98491.19;4424348;32;20094;-96
2020/12/30 06:38:34;;;;;;;32.58;14.63;;;;;;;10.35;59.75;98491.00;4548925;27;20099;-93
2020/12/30 06:41:04;;;;;;;24.37;13.60;;;;;;;10.37;59.75;98494.38;4401324;32;20113;-93
2020/12/30 06:43:51;;;;;;;29.20;13.18;;;;;;;10.52;59.76;98497.97;4399932;32;20078;-96
2020/12/30 06:47:07;;;;;;;22.60;12.30;;;;;;;10.51;59.76;98502.31;4394207;32;20067;-91
2020/12/30 06:53:36;;;;;;;23.08;12.60;;;;;;;10.62;59.76;98499.16;4394212;32;20117;-96
2020/12/30 06:56:03;;;;;;;20.42;11.75;;;;;;;10.56;59.77;98510.72;4433545;27;20119;-96
2020/12/30 06:58:48;;;;;;;22.62;12.37;;;;;;;10.73;59.77;98507.25;4361890;32;20118;-96
2020/12/30 07:04:45;;;;;;;17.52;10.07;;;;;;;10.68;59.77;98506.66;4403124;32;20125;-96
2020/12/30 07:07:21;;;;;;;18.85;9.38;;;;;;;10.89;59.78;98502.94;4369370;32;20135;-96
2020/12/30 07:09:47;;;;;;;18.73;10.18;;;;;;;10.85;59.77;98500.56;4362217;32;20093;-94
2020/12/30 07:12:14;;;;;;;23.35;11.00;;;;;;;10.81;59.78;98505.09;4391775;32;22044;-95
2020/12/30 07:14:39;;;;;;;23.50;10.23;;;;;;;10.72;59.77;98510.78;4404188;32;20123;-96
2020/12/30 07:17:06;;;;;;;25.73;11.30;;;;;;;10.82;59.78;98513.72;4388512;32;20161;-93
2020/12/30 07:19:33;;;;;;;15.20;10.10;;;;;;;10.76;59.77;98515.75;4400402;32;20050;-92
2020/12/30 07:22:09;;;;;;;18.17;10.38;;;;;;;10.90;59.78;98519.41;4388188;32;20757;-94
2020/12/30 07:24:53;;;;;;;15.55;9.93;;;;;;;10.83;59.78;98528.44;4402979;32;20120;-96
2020/12/30 07:27:19;;;;;;;20.60;10.35;;;;;;;10.84;59.77;98525.75;4399493;32;20109;-95
2020/12/30 07:29:46;;;;;;;18.70;11.20;;;;;;;10.89;59.78;98535.94;4388133;32;20120;-96
2020/12/30 07:32:11;;;;;;;23.45;12.73;;;;;;;10.92;59.78;98536.63;4401319;32;20058;-96
2020/12/30 07:34:44;;;;;;;20.37;11.90;;;;;;;10.79;59.78;98532.13;4389834;32;20175;-96
2020/12/30 07:37:17;;;;;;;16.95;9.95;;;;;;;10.80;59.78;98536.41;4395180;32;20070;-96
2020/12/30 07:39:47;;;;;;;20.37;11.80;;;;;;;10.98;59.78;98533.69;4414295;32;20147;-94
2020/12/30 07:42:19;;;;;;;21.05;12.65;;;;;;;11.01;59.79;98532.69;4399566;32;20755;-94
2020/12/30 07:44:45;;;;;;;22.05;11.40;;;;;;;10.88;59.78;98537.69;4399459;32;20098;-95
2020/12/30 07:47:10;;;;;;;18.12;11.00;;;;;;;10.99;59.79;98539.72;4386569;32;20105;-95
2020/12/30 07:49:36;;;;;;;22.02;12.18;;;;;;;11.11;59.79;98533.84;4386678;32;20112;-94
2020/12/30 07:52:02;;;;;;;23.85;11.98;;;;;;;10.92;59.79;98525.38;4385908;32;20108;-95
2020/12/30 07:54:27;;;;;;;22.85;12.85;;;;;;;10.76;59.77;98525.31;4397189;32;20474;-95
2020/12/30 07:57:00;;;;;;;27.35;13.70;;;;;;;10.84;59.79;98532.72;4398527;32;20124;-91
2020/12/30 07:59:26;;;;;;;27.42;12.23;;;;;;;10.91;59.77;98521.09;4397774;32;20129;-93
2020/12/30 08:01:52;;;;;;;22.48;11.85;;;;;;;10.83;59.78;98521.47;4397586;32;20140;-94
2020/12/30 08:04:18;;;;;;;20.00;10.82;;;;;;;10.80;59.78;98502.56;4411217;32;20109;-93
2020/12/30 08:06:44;;;;;;;25.45;12.00;;;;;;;10.84;59.77;98497.13;4397765;32;20594;-91
2020/12/30 08:09:11;;;;;;;19.67;11.35;;;;;;;10.77;59.78;98516.59;4396815;32;20140;-92
2020/12/30 08:11:36;;;;;;;25.90;12.07;;;;;;;10.97;59.78;98523.34;4398316;32;20106;-94
2020/12/30 08:14:08;;;;;;;17.23;11.88;;;;;;;10.83;59.78;98539.69;4399072;32;20105;-94
2020/12/30 08:16:34;;;;;;;24.83;15.00;;;;;;;10.95;59.78;98543.41;4398266;32;20123;-91
2020/12/30 08:18:59;;;;;;;44.83;29.45;;;;;;;11.07;59.79;98542.75;4397754;32;20094;-91
2020/12/30 08:21:25;;;;;;;26.20;16.45;;;;;;;10.92;59.78;98539.22;4397652;32;20117;-96
2020/12/30 08:24:09;;;;;;;27.52;15.15;;;;;;;10.95;59.78;98527.81;4398938;32;20478;-94
2020/12/30 08:26:35;;;;;;;21.85;11.93;;;;;;;11.00;59.79;98515.37;4398585;32;20073;-94
2020/12/30 08:29:01;;;;;;;26.80;12.68;;;;;;;10.96;59.79;98506.87;4398589;32;20730;-92
2020/12/30 08:31:26;;;;;;;28.80;14.65;;;;;;;10.93;59.78;98520.06;4398877;32;20120;-95
2020/12/30 08:33:51;;;;;;;25.33;14.25;;;;;;;11.05;59.78;98519.41;4403157;32;25312;-95
2020/12/30 08:36:21;;;;;;;25.08;13.50;;;;;;;11.13;59.79;98526.00;4421332;32;20488;-95
2020/12/30 08:38:48;;;;;;;20.40;12.48;;;;;;;11.32;59.81;98526.66;4403782;32;20090;-94
2020/12/30 08:41:14;;;;;;;19.10;11.60;;;;;;;11.32;59.80;98527.50;4399537;32;20109;-94
2020/12/30 08:43:41;;;;;;;21.67;11.82;;;;;;;11.46;59.82;98531.13;4399414;32;20163;-95
2020/12/30 08:46:20;;;;;;;16.95;10.50;;;;;;;11.30;59.80;98546.72;4411000;32;20109;-94
2020/12/30 08:48:51;;;;;;;20.30;10.93;;;;;;;11.47;59.81;98554.47;4398759;32;20458;-93
2020/12/30 08:51:30;;;;;;;16.27;9.50;;;;;;;11.46;59.81;98547.59;4398567;32;20136;-93
2020/12/30 08:53:56;;;;;;;21.77;9.55;;;;;;;11.59;59.82;98526.91;4398533;32;20117;-94
2020/12/30 08:56:22;;;;;;;24.27;9.85;;;;;;;11.57;59.82;98519.16;4399060;32;20424;-95
2020/12/30 08:58:55;;;;;;;17.02;9.18;;;;;;;11.64;59.82;98515.31;4412179;32;20112;-95
2020/12/30 09:01:26;;;;;;;18.30;9.63;;;;;;;11.65;59.82;98521.38;4399777;32;20106;-96
2020/12/30 09:03:52;;;;;;;14.73;9.55;;;;;;;11.64;59.82;98524.91;4399542;32;20462;-95
2020/12/30 09:06:28;;;;;;;16.48;9.48;;;;;;;11.72;59.82;98533.12;4399303;32;20101;-94
2020/12/30 09:08:54;;;;;;;12.95;8.85;;;;;;;11.68;59.83;98531.63;4398595;32;20115;-95
2020/12/30 09:11:20;;;;;;;16.05;9.77;;;;;;;11.74;59.82;98526.06;4399010;32;20153;-94
2020/12/30 09:13:46;;;;;;;14.93;8.60;;;;;;;11.85;59.84;98520.28;4411915;32;20419;-96
2020/12/30 09:16:11;;;;;;;14.75;8.07;;;;;;;11.89;59.83;98527.00;4398422;32;20117;-95
2020/12/30 09:18:37;;;;;;;15.30;8.27;;;;;;;11.99;59.85;98520.31;4398790;32;20093;-95
2020/12/30 09:21:03;;;;;;;11.48;7.65;;;;;;;11.86;59.84;98528.00;4398414;32;20115;-95
2020/12/30 09:23:28;;;;;;;15.43;8.25;;;;;;;11.88;59.83;98528.75;4399788;32;20092;-94
2020/12/30 09:25:56;;;;;;;11.25;7.18;;;;;;;11.93;59.84;98531.94;4399000;32;20141;-96
2020/12/30 09:28:25;;;;;;;15.10;8.15;;;;;;;12.01;59.84;98528.88;4382854;32;20140;-95
2020/12/30 09:30:52;;;;;;;13.10;8.40;;;;;;;12.12;59.84;98531.75;4381874;32;20098;-96
2020/12/30 09:33:25;;;;;;;15.52;9.02;;;;;;;12.13;59.84;98545.63;4394977;32;20419;-96
2020/12/30 09:35:50;;;;;;;18.08;9.65;;;;;;;12.26;59.85;98543.97;4381468;32;20198;-96
2020/12/30 09:38:24;;;;;;;14.60;9.18;;;;;;;12.17;59.85;98547.97;4385355;32;20150;-95
2020/12/30 09:40:54;;;;;;;15.85;12.23;;;;;;;12.31;59.86;98548.94;4386067;32;20088;-95
2020/12/30 09:43:21;;;;;;;16.75;11.50;;;;;;;12.33;59.86;98552.31;4360532;32;20237;-96
2020/12/30 09:45:56;;;;;;;69.57;38.35;;;;;;;12.16;59.85;98550.66;4371698;32;20097;-95
2020/12/30 09:48:21;;;;;;;18.12;11.55;;;;;;;11.97;59.84;98561.28;4357729;32;20149;-95
2020/12/30 09:50:48;;;;;;;17.90;10.95;;;;;;;11.91;59.84;98561.66;4367825;32;20099;-93
2020/12/30 09:53:26;;;;;;;11.90;8.40;;;;;;;11.98;59.84;98552.53;4359801;32;20106;-96
2020/12/30 09:56:12;;;;;;;19.80;11.48;;;;;;;11.89;59.83;98553.06;4387298;32;20113;-96
2020/12/30 09:58:47;;;;;;;18.48;9.95;;;;;;;11.74;59.82;98543.47;4388935;32;20081;-96
2020/12/30 10:01:32;;;;;;;11.68;9.07;;;;;;;11.48;59.81;98547.50;4392577;32;20129;-96
2020/12/30 10:03:58;;;;;;;13.85;9.48;;;;;;;11.58;59.81;98543.47;4408477;32;20098;-94
2020/12/30 10:06:23;;;;;;;20.23;10.43;;;;;;;11.57;59.82;98541.78;4370511;32;20137;-94
2020/12/30 10:08:48;;;;;;;25.30;15.02;;;;;;;11.44;59.81;98532.97;4369881;32;20083;-94
2020/12/30 10:11:32;;;;;;;17.23;11.27;;;;;;;11.37;59.80;98524.66;4359248;32;20098;-96
2020/12/30 10:13:58;;;;;;;14.73;9.88;;;;;;;11.41;59.81;98522.72;4397568;32;20102;-92
2020/12/30 10:16:30;;;;;;;22.37;10.55;;;;;;;11.36;59.80;98523.81;4367680;32;20890;-93
2020/12/30 10:18:55;;;;;;;20.05;11.75;;;;;;;11.39;59.81;98522.81;4360137;32;20151;-92
2020/12/30 10:21:27;;;;;;;19.75;12.45;;;;;;;11.34;59.81;98514.37;4374671;32;23820;-93
2020/12/30 10:23:52;;;;;;;18.20;10.98;;;;;;;11.38;59.81;98510.72;4381307;32;20106;-91
2020/12/30 10:26:18;;;;;;;19.02;11.12;;;;;;;11.47;59.81;98512.78;4395271;32;20105;-92
2020/12/30 10:28:43;;;;;;;20.42;11.07;;;;;;;11.52;59.81;98525.56;4382371;32;20113;-92
2020/12/30 10:31:12;;;;;;;19.62;12.25;;;;;;;11.38;59.81;98518.53;4381749;32;31412;-91
2020/12/30 10:33:37;;;;;;;17.15;11.68;;;;;;;11.59;59.83;98517.34;4382894;32;20132;-91
2020/12/30 10:36:05;;;;;;;19.20;10.85;;;;;;;11.57;59.81;98507.91;4381715;32;23279;-91
2020/12/30 10:38:31;;;;;;;13.30;9.70;;;;;;;11.72;59.83;98516.63;4394815;32;20108;-91
2020/12/30 10:40:56;;;;;;;17.95;11.48;;;;;;;12.01;59.84;98505.41;4384597;32;20119;-92
2020/12/30 10:43:22;;;;;;;18.15;11.07;;;;;;;11.83;59.84;98502.13;4382722;32;21114;-93
2020/12/30 10:45:47;;;;;;;17.55;11.40;;;;;;;11.84;59.83;98500.34;4388902;32;32039;-91
2020/12/30 10:48:12;;;;;;;15.85;11.48;;;;;;;11.91;59.84;98505.13;4382761;32;26170;-91
2020/12/30 10:50:38;;;;;;;17.52;10.93;;;;;;;12.18;59.85;98504.44;4381996;32;30231;-92
2020/12/30 10:53:03;;;;;;;17.58;11.25;;;;;;;12.35;59.85;98501.69;4382691;32;20169;-92
2020/12/30 10:55:29;;;;;;;21.05;11.40;;;;;;;12.25;59.85;98503.16;4395048;32;21632;-92
2020/12/30 10:57:54;;;;;;;18.42;11.12;;;;;;;12.13;59.84;98503.88;4379272;32;20185;-94
2020/12/30 11:00:20;;;;;;;19.85;12.00;;;;;;;12.07;59.84;98505.09;4353126;32;20094;-90
2020/12/30 11:02:45;;;;;;;20.75;10.52;;;;;;;12.23;59.85;98500.63;4352129;32;20511;-90
2020/12/30 11:05:10;;;;;;;23.05;11.77;;;;;;;12.51;59.87;98499.84;4352541;32;21415;-92
2020/12/30 11:07:36;;;;;;;22.95;12.25;;;;;;;12.32;59.85;98501.88;4352372;32;20110;-91
2020/12/30 11:10:02;;;;;;;24.90;14.70;;;;;;;12.24;59.85;98501.47;4365290;32;20475;-94
2020/12/30 11:12:27;;;;;;;24.12;14.27;;;;;;;12.50;59.86;98507.75;4353610;32;20452;-93
2020/12/30 11:14:53;;;;;;;17.73;11.93;;;;;;;12.58;59.86;98509.00;4365332;32;20110;-94
2020/12/30 11:17:18;;;;;;;17.58;11.80;;;;;;;12.55;59.87;98509.19;4353401;32;20129;-92
2020/12/30 11:19:43;;;;;;;25.20;14.25;;;;;;;12.71;59.87;98508.25;4352902;32;20136;-92
2020/12/30 11:22:09;;;;;;;17.95;11.60;;;;;;;12.55;59.87;98495.31;4352868;32;20424;-92
2020/12/30 11:24:34;;;;;;;17.45;11.93;;;;;;;12.54;59.87;98499.69;4352863;32;20492;-93
2020/12/30 11:27:00;;;;;;;17.55;11.60;;;;;;;12.58;59.86;98495.94;4353057;32;20527;-92
2020/12/30 11:29:25;;;;;;;18.70;11.20;;;;;;;12.74;59.88;98501.06;4352467;32;26071;-90
2020/12/30 11:31:50;;;;;;;19.85;11.60;;;;;;;12.45;59.86;98489.78;4351076;32;22790;-91
2020/12/30 11:34:16;;;;;;;17.52;12.10;;;;;;;12.61;59.87;98497.53;4351520;32;20857;-89
2020/12/30 11:36:42;;;;;;;24.50;16.37;;;;;;;12.56;59.87;98500.44;4368678;32;20079;-94
2020/12/30 11:39:07;;;;;;;25.12;15.63;;;;;;;12.89;59.88;98499.31;4351724;32;20067;-91
2020/12/30 11:41:33;;;;;;;34.05;19.20;;;;;;;12.84;59.88;98503.97;4351772;32;32146;-93
2020/12/30 11:43:58;;;;;;;20.23;14.27;;;;;;;12.65;59.87;98513.84;4353772;32;20102;-93
2020/12/30 11:46:25;;;;;;;21.85;14.38;;;;;;;12.78;59.88;98523.47;4365995;32;20459;-93
2020/12/30 11:48:53;;;;;;;23.90;15.75;;;;;;;13.00;59.89;98528.19;4353874;32;20122;-92
2020/12/30 11:51:19;;;;;;;26.65;16.30;;;;;;;12.98;59.90;98521.41;4377697;32;20864;-93
2020/12/30 11:53:44;;;;;;;24.87;16.50;;;;;;;12.85;59.88;98522.16;4353495;32;20142;-93
2020/12/30 11:56:18;;;;;;;24.02;15.77;;;;;;;12.87;59.88;98512.47;4354898;32;20107;-93
2020/12/30 11:58:43;;;;;;;26.65;17.20;;;;;;;12.84;59.88;98525.72;4369101;32;20531;-96
2020/12/30 12:01:08;;;;;;;27.58;18.62;;;;;;;12.69;59.88;98521.41;4356392;32;20185;-95
2020/12/30 12:03:34;;;;;;;25.35;16.00;;;;;;;12.51;59.87;98525.94;4356718;32;20141;-94
2020/12/30 12:05:59;;;;;;;26.05;17.12;;;;;;;12.59;59.87;98526.34;4356776;32;20134;-95
2020/12/30 12:08:25;;;;;;;24.23;15.82;;;;;;;12.71;59.87;98534.34;4356832;32;20345;-94
2020/12/30 12:10:50;;;;;;;27.70;17.20;;;;;;;12.69;59.88;98533.62;4357695;32;20122;-96
2020/12/30 12:13:15;;;;;;;29.25;18.00;;;;;;;12.89;59.89;98523.66;4382691;32;20512;-94
2020/12/30 12:15:42;;;;;;;27.98;16.80;;;;;;;12.84;59.88;98530.09;4371312;32;20448;-96
2020/12/30 12:18:07;;;;;;;23.45;16.55;;;;;;;12.84;59.88;98530.09;4368417;32;20154;-92
2020/12/30 12:20:33;;;;;;;28.48;15.60;;;;;;;12.70;59.88;98519.62;4355382;32;20133;-96
2020/12/30 12:22:58;;;;;;;21.83;14.32;;;;;;;12.70;59.87;98519.62;4355453;32;20110;-95
2020/12/30 12:25:24;;;;;;;21.05;14.50;;;;;;;13.09;59.89;98504.16;4356962;32;20260;-95
2020/12/30 12:27:49;;;;;;;26.65;15.38;;;;;;;13.20;59.91;98509.56;4369413;32;20086;-94
2020/12/30 12:30:14;;;;;;;27.20;15.02;;;;;;;12.88;59.89;98508.06;4356518;32;20188;-95
2020/12/30 12:32:40;;;;;;;25.27;14.63;;;;;;;12.87;59.89;98499.41;4356634;32;20148;-93
2020/12/30 12:35:05;;;;;;;21.77;15.60;;;;;;;12.98;59.89;98508.34;4368999;32;20150;-94
2020/12/30 12:37:30;;;;;;;27.10;16.17;;;;;;;13.00;59.89;98512.53;4356418;32;23040;-94
2020/12/30 12:39:56;;;;;;;27.37;17.35;;;;;;;12.77;59.88;98511.31;4356703;32;20141;-94
2020/12/30 12:42:23;;;;;;;23.45;15.60;;;;;;;12.75;59.88;98507.13;4356581;32;20172;-95
2020/12/30 12:44:48;;;;;;;25.70;16.60;;;;;;;12.71;59.88;98498.66;4380805;32;20102;-92
2020/12/30 12:47:14;;;;;;;25.37;16.25;;;;;;;12.76;59.88;98503.59;4355429;32;20411;-92
2020/12/30 12:49:43;;;;;;;26.25;16.37;;;;;;;12.60;59.88;98491.47;4366773;32;20137;-92
2020/12/30 12:52:09;;;;;;;25.52;16.87;;;;;;;12.69;59.88;98489.22;4355635;32;20114;-93
2020/12/30 12:54:35;;;;;;;25.25;17.02;;;;;;;12.56;59.87;98491.75;4354558;32;20098;-94
2020/12/30 12:57:01;;;;;;;29.48;18.50;;;;;;;12.46;59.86;98501.06;4368982;32;20389;-92
2020/12/30 12:59:27;;;;;;;28.20;18.52;;;;;;;12.38;59.86;98508.50;4366725;32;20110;-91
2020/12/30 13:01:52;;;;;;;36.55;21.35;;;;;;;12.39;59.86;98511.03;4382136;32;20699;-91
2020/12/30 13:04:18;;;;;;;33.72;21.83;;;;;;;12.35;59.85;98514.75;4356735;32;20901;-93
2020/12/30 13:06:43;;;;;;;36.85;20.48;;;;;;;12.51;59.87;98525.09;4355429;32;20138;-92
2020/12/30 13:09:09;;;;;;;30.90;19.27;;;;;;;12.41;59.86;98531.81;4354383;32;20122;-91
2020/12/30 13:11:34;;;;;;;32.80;20.58;;;;;;;12.62;59.87;98534.91;4366631;32;20106;-92
2020/12/30 13:14:00;;;;;;;31.85;21.25;;;;;;;12.49;59.87;98550.44;4367805;32;20098;-93
2020/12/30 13:16:25;;;;;;;37.20;20.95;;;;;;;12.48;59.86;98552.22;4367369;32;20141;-92
2020/12/30 13:18:50;;;;;;;35.30;21.30;;;;;;;12.60;59.87;98551.50;4355246;32;20157;-94
2020/12/30 13:21:16;;;;;;;34.85;21.77;;;;;;;12.68;59.88;98550.22;4354611;32;20117;-92
2020/12/30 13:23:41;;;;;;;37.50;21.50;;;;;;;12.52;59.87;98553.72;4371925;32;20122;-92
2020/12/30 13:26:07;;;;;;;36.28;23.62;;;;;;;12.68;59.88;98550.22;4365701;32;25863;-94
2020/12/30 13:28:33;;;;;;;45.38;24.42;;;;;;;12.67;59.88;98562.44;4377667;32;20156;-94
2020/12/30 13:30:58;;;;;;;42.17;25.60;;;;;;;12.66;59.88;98559.91;4365731;32;20193;-92
2020/12/30 13:33:23;;;;;;;39.75;25.90;;;;;;;12.54;59.87;98562.31;4352482;32;22770;-92
2020/12/30 13:35:49;;;;;;;39.92;23.25;;;;;;;12.58;59.88;98557.75;4353585;32;20467;-93
2020/12/30 13:38:19;;;;;;;36.33;21.92;;;;;;;12.47;59.87;98565.38;4353287;32;20490;-92
2020/12/30 13:40:44;;;;;;;38.97;22.67;;;;;;;12.41;59.86;98563.97;4365469;32;20106;-92
2020/12/30 13:43:11;;;;;;;42.90;26.65;;;;;;;12.51;59.87;98570.31;4365490;32;20481;-93